Richville, New York
Current Conditions -  °F | °C
As of 6:03 PM on Saturday 25 Oct 2014 (Local Time) from KGTB Reporting Station
Broken Clouds Broken Clouds  
Wind Chill: 54°   Ceiling: 4300
Heat Index: 54°   Visibility: 9mi
Dew Point: 54°   Wind: 7mph
Humidity: 100%   Direction: 250°WSW
Pressure: 29.52"   Gusts: NA
Location:  44.42°N, 75.39°W
Report Text: KGTB 252203Z AUTO 25006KT 9SM SCT024 BKN043 12/12 A2952 RMK AO2 CIG 023 RWY03
Loading
Personal Weather Stations






























Interactive Weather Map
Tropical Storm Tracking
New forecast layout! Learn more

10-Day Weather Forecast

Advertisements
Track Severe Weather on mobile